createdAt,value
2023-01-13T00:01:16.984Z,2.60
2023-01-13T00:03:44.731Z,2.50
2023-01-13T00:06:17.606Z,2.60
2023-01-13T00:08:45.054Z,2.60
2023-01-13T00:11:12.003Z,2.50
2023-01-13T00:13:39.025Z,2.40
2023-01-13T00:16:11.802Z,2.30
2023-01-13T00:18:38.904Z,2.30
2023-01-13T00:21:08.799Z,2.30
2023-01-13T00:23:36.245Z,2.40
2023-01-13T00:26:09.940Z,2.60
2023-01-13T00:28:37.375Z,2.60
2023-01-13T00:31:13.714Z,2.50
2023-01-13T00:33:41.179Z,2.50
2023-01-13T00:36:10.964Z,2.50
2023-01-13T00:38:38.963Z,2.40
2023-01-13T00:41:08.871Z,2.30
2023-01-13T00:43:36.955Z,2.00
2023-01-13T00:46:05.889Z,1.90
2023-01-13T00:48:33.792Z,2.00
2023-01-13T00:51:02.877Z,2.10
2023-01-13T00:53:35.201Z,2.00
2023-01-13T00:56:21.869Z,1.90
2023-01-13T00:58:49.109Z,2.00
2023-01-13T01:01:22.084Z,2.10
2023-01-13T01:03:50.415Z,2.10
2023-01-13T01:06:20.514Z,2.10
2023-01-13T01:08:47.945Z,2.20
2023-01-13T01:11:20.661Z,2.10
2023-01-13T01:13:48.965Z,2.10
2023-01-13T01:16:17.918Z,2.20
2023-01-13T01:18:47.682Z,2.20
2023-01-13T01:21:15.474Z,2.20
2023-01-13T01:23:42.617Z,2.20
2023-01-13T01:26:16.628Z,2.20
2023-01-13T01:28:44.455Z,2.20
2023-01-13T01:31:16.964Z,2.30
2023-01-13T01:33:44.406Z,2.20
2023-01-13T01:36:13.176Z,2.20
2023-01-13T01:38:40.439Z,2.20
2023-01-13T01:41:07.656Z,2.10
2023-01-13T01:44:08.256Z,2.00
2023-01-13T01:46:42.209Z,2.00
2023-01-13T01:49:32.817Z,2.10
2023-01-13T01:52:17.538Z,2.00
2023-01-13T01:55:09.322Z,1.90
2023-01-13T01:57:39.369Z,2.00
2023-01-13T02:00:07.368Z,1.80
2023-01-13T02:02:35.167Z,1.70
2023-01-13T02:05:02.786Z,1.80
2023-01-13T02:07:33.361Z,1.70
2023-01-13T02:10:06.406Z,1.60
2023-01-13T02:12:34.229Z,1.60
2023-01-13T02:15:14.565Z,1.70
2023-01-13T02:18:25.030Z,1.60
2023-01-13T02:21:10.323Z,1.60
2023-01-13T02:24:40.611Z,1.70
2023-01-13T02:27:13.509Z,1.60
2023-01-13T02:30:26.593Z,1.70
2023-01-13T02:33:05.303Z,1.70
2023-01-13T02:35:35.296Z,1.80
2023-01-13T02:38:04.310Z,1.80
2023-01-13T02:40:46.830Z,1.90
2023-01-13T02:43:58.168Z,1.90
2023-01-13T02:46:48.704Z,1.90
2023-01-13T02:49:25.935Z,1.90
2023-01-13T02:51:57.630Z,1.90
2023-01-13T02:54:28.552Z,1.90
2023-01-13T02:56:57.906Z,1.80
2023-01-13T02:59:27.890Z,2.00
2023-01-13T03:01:59.798Z,2.10
2023-01-13T03:04:55.406Z,2.10
2023-01-13T03:07:34.380Z,2.20
2023-01-13T03:10:28.385Z,2.20
2023-01-13T03:12:55.331Z,2.30
2023-01-13T03:16:03.590Z,2.00
2023-01-13T03:18:30.648Z,1.80
2023-01-13T03:21:06.496Z,1.90
2023-01-13T03:23:59.464Z,1.90
2023-01-13T03:26:32.565Z,1.80
2023-01-13T03:29:29.877Z,1.70
2023-01-13T03:32:12.661Z,1.70
2023-01-13T03:35:08.437Z,1.60
2023-01-13T03:37:42.556Z,1.70
2023-01-13T03:40:18.920Z,1.70
2023-01-13T03:43:11.231Z,1.80
2023-01-13T03:45:41.408Z,1.80
2023-01-13T03:48:12.643Z,1.90
2023-01-13T03:50:45.662Z,1.90
2023-01-13T03:53:16.898Z,1.90
2023-01-13T03:55:49.052Z,1.90
2023-01-13T03:58:27.593Z,1.80
2023-01-13T04:01:11.724Z,1.80
2023-01-13T04:03:54.025Z,1.80
2023-01-13T04:06:51.991Z,1.80
2023-01-13T04:09:52.808Z,1.80
2023-01-13T04:12:22.646Z,1.70
2023-01-13T04:14:50.833Z,1.70
2023-01-13T04:17:18.922Z,1.60
2023-01-13T04:19:46.083Z,1.70
2023-01-13T04:22:13.227Z,1.60
2023-01-13T04:24:40.364Z,1.70
2023-01-13T04:27:07.484Z,1.70
2023-01-13T04:29:34.616Z,1.70
2023-01-13T04:32:01.720Z,1.60
2023-01-13T04:34:31.611Z,1.70
2023-01-13T04:36:58.701Z,1.70
2023-01-13T04:39:25.619Z,1.60
2023-01-13T04:41:58.413Z,1.40
2023-01-13T04:44:26.629Z,1.20
2023-01-13T04:46:54.313Z,1.10
2023-01-13T04:49:21.490Z,1.10
2023-01-13T04:51:48.707Z,1.10
2023-01-13T04:54:16.331Z,1.30
2023-01-13T04:56:43.732Z,1.30
2023-01-13T04:59:12.338Z,1.20
2023-01-13T05:01:39.526Z,1.10
2023-01-13T05:04:07.901Z,1.00
2023-01-13T05:06:37.204Z,0.90
2023-01-13T05:09:04.327Z,0.90
2023-01-13T05:11:49.750Z,1.00
2023-01-13T05:14:35.413Z,1.10
2023-01-13T05:17:03.425Z,1.20
2023-01-13T05:19:36.029Z,1.20
2023-01-13T05:22:23.143Z,1.20
2023-01-13T05:25:08.490Z,1.20
2023-01-13T05:27:36.039Z,1.20
2023-01-13T05:30:03.130Z,1.30
2023-01-13T05:32:30.102Z,1.40
2023-01-13T05:34:57.475Z,1.40
2023-01-13T05:37:26.007Z,1.40
2023-01-13T05:40:11.433Z,1.40
2023-01-13T05:42:57.691Z,1.50
2023-01-13T05:45:25.242Z,1.50
2023-01-13T05:47:52.288Z,1.50
2023-01-13T05:50:19.428Z,1.60
2023-01-13T05:52:46.435Z,1.50
2023-01-13T05:55:13.533Z,1.40
2023-01-13T05:57:41.189Z,1.50
2023-01-13T06:00:08.980Z,1.60
2023-01-13T06:02:36.017Z,1.60
2023-01-13T06:05:03.315Z,1.60
2023-01-13T06:07:30.469Z,1.50
2023-01-13T06:09:57.422Z,1.40
2023-01-13T06:12:24.415Z,1.30
2023-01-13T06:14:51.933Z,1.30
2023-01-13T06:17:19.392Z,1.20
2023-01-13T06:19:46.405Z,1.10
2023-01-13T06:22:24.125Z,1.10
2023-01-13T06:24:53.810Z,1.10
2023-01-13T06:27:22.607Z,1.20
2023-01-13T06:29:50.009Z,1.20
2023-01-13T06:32:28.878Z,1.20
2023-01-13T06:35:08.940Z,1.20
2023-01-13T06:37:37.042Z,1.20
2023-01-13T06:40:07.037Z,1.40
2023-01-13T06:42:55.279Z,1.60
2023-01-13T06:45:24.153Z,1.50
2023-01-13T06:47:52.029Z,1.40
2023-01-13T06:50:19.218Z,1.30
2023-01-13T06:52:46.577Z,1.20
2023-01-13T06:55:13.810Z,1.20
2023-01-13T06:57:52.898Z,1.30
2023-01-13T07:00:21.078Z,1.30
2023-01-13T07:02:48.374Z,1.40
2023-01-13T07:05:16.684Z,1.40
2023-01-13T07:07:43.837Z,1.40
2023-01-13T07:10:13.344Z,1.50
2023-01-13T07:13:00.350Z,1.60
2023-01-13T07:15:27.653Z,1.70
2023-01-13T07:17:54.617Z,1.80
2023-01-13T07:20:21.858Z,1.90
2023-01-13T07:22:54.179Z,2.00
2023-01-13T07:25:21.975Z,2.00
2023-01-13T07:27:49.290Z,2.20
2023-01-13T07:30:16.577Z,2.20
2023-01-13T07:32:43.771Z,2.40
2023-01-13T07:35:10.871Z,2.40
2023-01-13T07:37:39.784Z,2.50
2023-01-13T07:40:07.875Z,2.60
2023-01-13T07:42:56.710Z,2.70
2023-01-13T07:45:23.937Z,3.00
2023-01-13T07:47:53.003Z,3.20
2023-01-13T07:50:22.012Z,3.10
2023-01-13T07:52:49.151Z,3.20
2023-01-13T07:55:16.379Z,3.30
2023-01-13T07:57:43.432Z,3.40
2023-01-13T08:00:12.855Z,3.50
2023-01-13T08:02:40.199Z,3.70
2023-01-13T08:05:08.171Z,3.60
2023-01-13T08:07:36.070Z,3.70
2023-01-13T08:10:04.253Z,3.90
2023-01-13T08:12:53.316Z,3.90
2023-01-13T08:15:32.539Z,3.80
2023-01-13T08:17:59.534Z,3.80
2023-01-13T08:20:26.724Z,3.90
2023-01-13T08:22:58.562Z,3.80
2023-01-13T08:25:27.314Z,3.80
2023-01-13T08:27:55.136Z,3.50
2023-01-13T08:30:22.936Z,3.50
2023-01-13T08:32:51.290Z,3.50
2023-01-13T08:35:18.801Z,3.60
2023-01-13T08:37:47.427Z,3.50
2023-01-13T08:40:16.898Z,3.50
2023-01-13T08:42:44.263Z,3.50
2023-01-13T08:45:13.454Z,3.60
2023-01-13T08:47:41.079Z,3.70
2023-01-13T08:50:09.269Z,3.70
2023-01-13T08:52:36.501Z,3.70
2023-01-13T08:55:03.819Z,3.90
2023-01-13T08:57:31.310Z,4.00
2023-01-13T08:59:58.638Z,4.10
2023-01-13T09:02:26.856Z,4.10
2023-01-13T09:04:54.442Z,4.20
2023-01-13T09:07:21.994Z,4.30
2023-01-13T09:09:49.140Z,4.40
2023-01-13T09:12:35.260Z,4.40
2023-01-13T09:15:04.429Z,4.50
2023-01-13T09:17:31.480Z,4.40
2023-01-13T09:19:58.587Z,4.60
2023-01-13T09:22:28.184Z,4.70
2023-01-13T09:24:55.792Z,4.70
2023-01-13T09:27:23.765Z,4.90
2023-01-13T09:29:50.791Z,5.30
2023-01-13T09:32:18.320Z,5.50
2023-01-13T09:35:00.672Z,5.80
2023-01-13T09:37:28.766Z,5.90
2023-01-13T09:39:56.545Z,6.10
2023-01-13T09:42:51.141Z,6.50
2023-01-13T09:45:46.967Z,6.60
2023-01-13T09:48:21.943Z,6.50
2023-01-13T09:51:06.692Z,7.00
2023-01-13T09:53:49.883Z,7.10
2023-01-13T09:56:16.992Z,7.20
2023-01-13T09:58:45.715Z,7.60
2023-01-13T10:01:24.745Z,8.00
2023-01-13T10:03:52.148Z,8.00
2023-01-13T10:06:28.392Z,8.30
2023-01-13T10:08:57.474Z,8.80
2023-01-13T10:11:48.589Z,9.00
2023-01-13T10:14:39.995Z,8.90
2023-01-13T10:17:16.054Z,9.20
2023-01-13T10:20:05.426Z,9.40
2023-01-13T10:22:48.207Z,9.50
2023-01-13T10:25:30.646Z,9.80
2023-01-13T10:28:08.216Z,9.90
2023-01-13T10:30:40.295Z,10.00
2023-01-13T10:33:10.689Z,9.90
2023-01-13T10:35:59.304Z,9.90
2023-01-13T10:38:39.698Z,10.10
2023-01-13T10:41:20.249Z,10.10
2023-01-13T10:44:02.435Z,10.10
2023-01-13T10:46:31.072Z,10.10
2023-01-13T10:49:00.759Z,10.40
2023-01-13T10:51:39.610Z,10.60
2023-01-13T10:54:15.448Z,10.70
2023-01-13T10:56:47.390Z,10.70
2023-01-13T10:59:23.420Z,10.60
2023-01-13T11:02:13.110Z,10.70
2023-01-13T11:05:00.796Z,11.00
2023-01-13T11:07:52.581Z,11.40
2023-01-13T11:10:27.693Z,11.60
2023-01-13T11:13:03.348Z,11.80
2023-01-13T11:16:01.815Z,12.10
2023-01-13T11:18:41.006Z,12.10
2023-01-13T11:21:53.538Z,12.10
2023-01-13T11:24:36.608Z,12.20
2023-01-13T11:27:14.700Z,12.20
2023-01-13T11:30:09.808Z,12.10
2023-01-13T11:33:01.655Z,11.70
2023-01-13T11:35:31.863Z,11.40
2023-01-13T11:38:06.657Z,11.60
2023-01-13T11:40:39.265Z,11.90
2023-01-13T11:43:30.890Z,12.10
2023-01-13T11:46:00.390Z,11.90
2023-01-13T11:48:35.347Z,11.80
2023-01-13T11:51:14.166Z,11.90
2023-01-13T11:53:47.009Z,12.10
2023-01-13T11:56:27.477Z,12.20
2023-01-13T11:58:54.549Z,12.30
2023-01-13T12:01:43.630Z,12.30
2023-01-13T12:05:07.957Z,12.40
2023-01-13T12:07:47.587Z,12.40
2023-01-13T12:10:28.007Z,12.20
2023-01-13T12:13:24.232Z,12.20
2023-01-13T12:16:35.486Z,12.20
2023-01-13T12:19:28.200Z,12.40
2023-01-13T12:22:13.571Z,12.80
2023-01-13T12:24:46.308Z,12.80
2023-01-13T12:27:18.403Z,12.70
2023-01-13T12:29:48.262Z,12.80
2023-01-13T12:32:22.051Z,12.70
2023-01-13T12:34:54.868Z,12.50
2023-01-13T12:37:43.012Z,12.20
2023-01-13T12:40:22.162Z,12.20
2023-01-13T12:43:10.681Z,12.10
2023-01-13T12:45:37.784Z,12.00
2023-01-13T12:48:05.800Z,11.90
2023-01-13T12:50:32.690Z,11.80
2023-01-13T12:53:30.049Z,11.80
2023-01-13T12:56:28.086Z,11.80
2023-01-13T12:59:19.175Z,12.00
2023-01-13T13:01:48.646Z,12.00
2023-01-13T13:04:56.281Z,12.10
2023-01-13T13:07:26.725Z,12.10
2023-01-13T13:10:12.035Z,12.10
2023-01-13T13:13:00.213Z,12.20
2023-01-13T13:15:29.713Z,12.30
2023-01-13T13:17:59.921Z,12.30
2023-01-13T13:21:04.259Z,12.40
2023-01-13T13:23:36.767Z,12.60
2023-01-13T13:26:26.185Z,12.60
2023-01-13T13:29:18.088Z,12.40
2023-01-13T13:31:44.996Z,12.40
2023-01-13T13:34:21.831Z,12.30
2023-01-13T13:37:16.534Z,12.30
2023-01-13T13:40:05.405Z,12.30
2023-01-13T13:42:59.494Z,12.20
2023-01-13T13:45:46.061Z,12.20
2023-01-13T13:48:39.322Z,12.10
2023-01-13T13:51:31.847Z,12.30
2023-01-13T13:53:59.810Z,12.30
2023-01-13T13:56:29.131Z,12.20
2023-01-13T13:58:56.320Z,12.40
2023-01-13T14:01:28.414Z,12.50
2023-01-13T14:04:04.307Z,12.50
2023-01-13T14:06:32.953Z,12.50
2023-01-13T14:09:00.117Z,12.50
2023-01-13T14:11:29.665Z,12.40
2023-01-13T14:14:06.820Z,12.10
2023-01-13T14:16:36.281Z,11.90
2023-01-13T14:19:03.776Z,11.80
2023-01-13T14:21:31.474Z,11.70
2023-01-13T14:24:10.969Z,11.70
2023-01-13T14:26:39.479Z,11.70
2023-01-13T14:29:06.974Z,11.70
2023-01-13T14:31:35.121Z,11.60
2023-01-13T14:34:30.639Z,11.50
2023-01-13T14:36:51.464Z,11.40
2023-01-13T14:39:18.482Z,11.20
2023-01-13T14:41:48.292Z,11.20
2023-01-13T14:44:20.902Z,11.20
2023-01-13T14:46:48.161Z,11.10
2023-01-13T14:49:51.691Z,11.00
2023-01-13T14:52:24.512Z,11.00
2023-01-13T14:55:21.230Z,10.90
2023-01-13T14:57:48.661Z,10.80
2023-01-13T15:00:15.686Z,10.80
2023-01-13T15:02:44.365Z,10.70
2023-01-13T15:05:17.525Z,10.70
2023-01-13T15:08:11.125Z,10.60
2023-01-13T15:10:47.132Z,10.50
2023-01-13T15:13:26.312Z,10.50
2023-01-13T15:15:58.970Z,10.40
2023-01-13T15:18:26.456Z,10.30
2023-01-13T15:20:53.786Z,10.20
2023-01-13T15:23:21.443Z,10.10
2023-01-13T15:25:49.379Z,10.00
2023-01-13T15:28:22.964Z,9.90
2023-01-13T15:30:51.973Z,9.80
2023-01-13T15:33:19.499Z,9.70
2023-01-13T15:35:49.363Z,9.60
2023-01-13T15:38:21.311Z,9.50
2023-01-13T15:40:49.511Z,9.40
2023-01-13T15:43:42.442Z,9.40
2023-01-13T15:46:20.122Z,9.30
2023-01-13T15:48:50.610Z,9.30
2023-01-13T15:51:21.915Z,9.20
2023-01-13T15:53:49.295Z,9.20
2023-01-13T15:56:25.624Z,9.20
2023-01-13T15:58:53.311Z,9.20
2023-01-13T16:01:21.018Z,9.10
2023-01-13T16:03:48.331Z,9.00
2023-01-13T16:06:20.990Z,8.90
2023-01-13T16:08:48.224Z,8.90
2023-01-13T16:11:15.431Z,8.90
2023-01-13T16:13:42.561Z,8.80
2023-01-13T16:16:22.366Z,8.70
2023-01-13T16:18:50.228Z,8.70
2023-01-13T16:21:20.605Z,8.70
2023-01-13T16:23:48.935Z,8.70
2023-01-13T16:26:27.299Z,8.60
2023-01-13T16:28:56.566Z,8.60
2023-01-13T16:31:33.037Z,8.50
2023-01-13T16:34:01.569Z,8.50
2023-01-13T16:36:34.908Z,8.50
2023-01-13T16:39:04.720Z,8.50
2023-01-13T16:41:34.739Z,8.50
2023-01-13T16:44:06.158Z,8.50
2023-01-13T16:46:34.336Z,8.50
2023-01-13T16:49:06.055Z,8.50
2023-01-13T16:51:34.444Z,8.40
2023-01-13T16:54:01.423Z,8.40
2023-01-13T16:56:31.317Z,8.40
2023-01-13T16:59:02.633Z,8.40
2023-01-13T17:01:37.461Z,8.40
2023-01-13T17:04:05.723Z,8.30
2023-01-13T17:06:41.803Z,8.30
2023-01-13T17:09:16.320Z,8.30
2023-01-13T17:11:43.606Z,8.30
2023-01-13T17:14:19.289Z,8.20
2023-01-13T17:16:47.714Z,8.20
2023-01-13T17:19:14.780Z,8.20
2023-01-13T17:21:42.535Z,8.20
2023-01-13T17:24:12.503Z,8.10
2023-01-13T17:26:44.067Z,8.10
2023-01-13T17:29:17.931Z,8.10
2023-01-13T17:31:45.182Z,8.10
2023-01-13T17:34:13.440Z,8.10
2023-01-13T17:36:40.901Z,8.00
2023-01-13T17:39:07.873Z,8.00
2023-01-13T17:41:34.998Z,8.00
2023-01-13T17:44:01.975Z,8.00
2023-01-13T17:46:29.133Z,8.00
2023-01-13T17:48:56.279Z,8.00
2023-01-13T17:51:25.225Z,8.00
2023-01-13T17:53:53.634Z,7.90
2023-01-13T17:56:20.873Z,7.90
2023-01-13T17:58:48.134Z,7.80
2023-01-13T18:01:18.633Z,7.80
2023-01-13T18:03:46.543Z,7.80
2023-01-13T18:06:19.135Z,7.80
2023-01-13T18:08:46.790Z,7.70
2023-01-13T18:11:18.864Z,7.70
2023-01-13T18:13:49.767Z,7.70
2023-01-13T18:16:19.348Z,7.70
2023-01-13T18:18:48.756Z,7.70
2023-01-13T18:21:45.114Z,7.70
2023-01-13T18:24:35.664Z,7.70
2023-01-13T18:27:21.518Z,7.70
2023-01-13T18:29:53.810Z,7.60
2023-01-13T18:32:22.050Z,7.60
2023-01-13T18:34:51.978Z,7.60
2023-01-13T18:37:21.416Z,7.60
2023-01-13T18:39:48.687Z,7.60
2023-01-13T18:42:34.023Z,7.60
2023-01-13T18:45:01.175Z,7.50
2023-01-13T18:47:30.856Z,7.50
2023-01-13T18:49:58.449Z,7.50
2023-01-13T18:52:26.278Z,7.50
2023-01-13T18:54:53.689Z,7.50
2023-01-13T18:57:21.675Z,7.40
2023-01-13T18:59:48.820Z,7.50
2023-01-13T19:02:18.305Z,7.50
2023-01-13T19:04:46.087Z,7.50
2023-01-13T19:07:16.872Z,7.50
2023-01-13T19:09:44.249Z,7.50
2023-01-13T19:12:13.072Z,7.50
2023-01-13T19:14:42.365Z,7.50
2023-01-13T19:17:16.288Z,7.50
2023-01-13T19:19:45.907Z,7.70
2023-01-13T19:22:16.343Z,7.70
2023-01-13T19:24:43.797Z,7.60
2023-01-13T19:27:14.311Z,7.40
2023-01-13T19:29:46.051Z,7.40
2023-01-13T19:32:19.973Z,7.40
2023-01-13T19:34:49.262Z,7.40
2023-01-13T19:37:17.156Z,7.30
2023-01-13T19:39:44.984Z,7.30
2023-01-13T19:42:30.685Z,7.30
2023-01-13T19:45:16.535Z,7.30
2023-01-13T19:47:45.643Z,7.30
2023-01-13T19:50:14.413Z,7.30
2023-01-13T19:52:43.539Z,7.30
2023-01-13T19:55:12.899Z,7.30
2023-01-13T19:57:41.281Z,7.30
2023-01-13T20:00:09.412Z,7.20
2023-01-13T20:02:37.094Z,7.30
2023-01-13T20:05:06.674Z,7.30
2023-01-13T20:07:35.331Z,7.30
2023-01-13T20:10:03.022Z,7.30
2023-01-13T20:12:30.088Z,7.30
2023-01-13T20:14:57.182Z,7.40
2023-01-13T20:17:25.874Z,7.30
2023-01-13T20:19:53.034Z,7.30
2023-01-13T20:22:20.362Z,7.40
2023-01-13T20:24:48.651Z,7.30
2023-01-13T20:27:15.692Z,7.30
2023-01-13T20:29:42.805Z,7.30
2023-01-13T20:32:09.837Z,7.30
2023-01-13T20:34:36.976Z,7.20
2023-01-13T20:37:04.096Z,7.20
2023-01-13T20:39:31.632Z,7.20
2023-01-13T20:42:17.066Z,7.20
2023-01-13T20:44:47.229Z,7.20
2023-01-13T20:47:14.605Z,7.20
2023-01-13T20:49:41.806Z,7.20
2023-01-13T20:52:09.624Z,7.20
2023-01-13T20:54:41.029Z,7.30
2023-01-13T20:57:10.142Z,7.30
2023-01-13T20:59:38.536Z,7.20
2023-01-13T21:02:07.836Z,7.20
2023-01-13T21:04:35.693Z,7.20
2023-01-13T21:07:03.290Z,7.30
2023-01-13T21:09:31.046Z,7.30
2023-01-13T21:12:17.123Z,7.30
2023-01-13T21:15:02.824Z,7.40
2023-01-13T21:17:48.587Z,7.40
2023-01-13T21:20:16.052Z,7.30
2023-01-13T21:22:48.104Z,7.40
2023-01-13T21:25:16.846Z,7.40
2023-01-13T21:27:46.636Z,7.50
2023-01-13T21:30:16.012Z,7.60
2023-01-13T21:32:44.516Z,7.70
2023-01-13T21:35:13.057Z,7.90
2023-01-13T21:37:41.665Z,7.90
2023-01-13T21:40:12.210Z,8.00
2023-01-13T21:42:57.735Z,8.00
2023-01-13T21:45:43.485Z,8.10
2023-01-13T21:48:10.830Z,8.00
2023-01-13T21:50:38.412Z,7.90
2023-01-13T21:53:07.583Z,7.70
2023-01-13T21:55:36.946Z,7.60
2023-01-13T21:58:11.729Z,7.50
2023-01-13T22:00:40.242Z,7.30
2023-01-13T22:03:08.920Z,7.30
2023-01-13T22:05:36.622Z,7.30
2023-01-13T22:08:04.496Z,7.40
2023-01-13T22:10:32.261Z,7.40
2023-01-13T22:13:21.211Z,7.40
2023-01-13T22:15:48.960Z,7.40
2023-01-13T22:18:18.145Z,7.40
2023-01-13T22:20:45.462Z,7.50
2023-01-13T22:23:12.651Z,7.60
2023-01-13T22:25:39.694Z,7.60
2023-01-13T22:28:09.189Z,7.60
2023-01-13T22:30:36.575Z,7.50
2023-01-13T22:33:03.672Z,7.40
2023-01-13T22:35:30.779Z,7.40
2023-01-13T22:37:58.870Z,7.30
2023-01-13T22:40:26.049Z,7.20
2023-01-13T22:42:53.077Z,7.20
2023-01-13T22:45:20.334Z,7.20
2023-01-13T22:47:48.179Z,7.30
2023-01-13T22:50:17.750Z,7.40
2023-01-13T22:52:44.738Z,7.50
2023-01-13T22:55:11.771Z,7.50
2023-01-13T22:57:47.369Z,7.50
2023-01-13T23:00:18.946Z,7.50
2023-01-13T23:02:46.296Z,7.40
2023-01-13T23:05:14.040Z,7.40
2023-01-13T23:07:41.411Z,7.50
2023-01-13T23:10:09.011Z,7.50
2023-01-13T23:12:35.957Z,7.50
2023-01-13T23:15:04.229Z,7.50
2023-01-13T23:17:31.574Z,7.60
2023-01-13T23:19:58.514Z,7.70
2023-01-13T23:22:25.510Z,7.70
2023-01-13T23:24:52.580Z,7.80
2023-01-13T23:27:19.690Z,7.70
2023-01-13T23:29:46.752Z,7.70
2023-01-13T23:32:13.806Z,7.60
2023-01-13T23:34:40.845Z,7.70
2023-01-13T23:37:07.875Z,7.70
2023-01-13T23:39:34.945Z,7.80
2023-01-13T23:42:02.064Z,7.80
2023-01-13T23:44:29.625Z,7.70
2023-01-13T23:46:56.721Z,7.70
2023-01-13T23:49:23.800Z,7.70
2023-01-13T23:51:51.756Z,7.50
2023-01-13T23:54:18.941Z,7.60
2023-01-13T23:56:46.123Z,7.60
2023-01-13T23:59:13.252Z,7.60
